sensor_id;sensor_type;location;lat;lon;timestamp;P1;durP1;ratioP1;P2;durP2;ratioP2
4106;SDS011;21906;50.812;7.132;2022-09-30T00:01:07;6.80;;;6.20;;
4106;SDS011;21906;50.812;7.132;2022-09-30T00:03:33;6.53;;;5.93;;
4106;SDS011;21906;50.812;7.132;2022-09-30T00:06:02;6.10;;;5.70;;
4106;SDS011;21906;50.812;7.132;2022-09-30T00:08:29;6.83;;;6.27;;
4106;SDS011;21906;50.812;7.132;2022-09-30T00:11:02;6.47;;;5.97;;
4106;SDS011;21906;50.812;7.132;2022-09-30T00:13:33;6.33;;;5.73;;
4106;SDS011;21906;50.812;7.132;2022-09-30T00:16:00;6.67;;;5.93;;
4106;SDS011;21906;50.812;7.132;2022-09-30T00:18:27;7.97;;;7.20;;
4106;SDS011;21906;50.812;7.132;2022-09-30T00:20:52;5.90;;;5.40;;
4106;SDS011;21906;50.812;7.132;2022-09-30T00:23:19;5.90;;;5.50;;
4106;SDS011;21906;50.812;7.132;2022-09-30T00:25:45;7.67;;;5.93;;
4106;SDS011;21906;50.812;7.132;2022-09-30T00:28:12;5.80;;;5.37;;
4106;SDS011;21906;50.812;7.132;2022-09-30T00:30:38;7.60;;;6.40;;
4106;SDS011;21906;50.812;7.132;2022-09-30T00:33:04;6.67;;;6.07;;
4106;SDS011;21906;50.812;7.132;2022-09-30T00:35:30;6.53;;;6.00;;
4106;SDS011;21906;50.812;7.132;2022-09-30T00:37:55;6.40;;;5.80;;
4106;SDS011;21906;50.812;7.132;2022-09-30T00:40:21;6.50;;;6.00;;
4106;SDS011;21906;50.812;7.132;2022-09-30T00:42:47;10.47;;;6.37;;
4106;SDS011;21906;50.812;7.132;2022-09-30T00:45:13;6.33;;;5.83;;
4106;SDS011;21906;50.812;7.132;2022-09-30T00:47:52;6.57;;;5.93;;
4106;SDS011;21906;50.812;7.132;2022-09-30T00:50:25;6.43;;;5.83;;
4106;SDS011;21906;50.812;7.132;2022-09-30T00:58:11;6.70;;;6.20;;
4106;SDS011;21906;50.812;7.132;2022-09-30T01:00:41;6.13;;;5.63;;
4106;SDS011;21906;50.812;7.132;2022-09-30T01:03:07;6.20;;;5.70;;
4106;SDS011;21906;50.812;7.132;2022-09-30T01:05:32;6.33;;;5.80;;
4106;SDS011;21906;50.812;7.132;2022-09-30T01:07:59;6.70;;;5.57;;
4106;SDS011;21906;50.812;7.132;2022-09-30T01:10:27;6.17;;;5.50;;
4106;SDS011;21906;50.812;7.132;2022-09-30T01:12:53;8.43;;;6.00;;
4106;SDS011;21906;50.812;7.132;2022-09-30T01:15:20;8.60;;;5.63;;
4106;SDS011;21906;50.812;7.132;2022-09-30T01:17:58;6.27;;;5.67;;
4106;SDS011;21906;50.812;7.132;2022-09-30T01:23:41;6.10;;;5.60;;
4106;SDS011;21906;50.812;7.132;2022-09-30T01:37:43;6.37;;;5.87;;
4106;SDS011;21906;50.812;7.132;2022-09-30T01:42:32;6.57;;;6.07;;
4106;SDS011;21906;50.812;7.132;2022-09-30T01:47:54;7.57;;;5.90;;
4106;SDS011;21906;50.812;7.132;2022-09-30T02:00:57;6.50;;;5.90;;
4106;SDS011;21906;50.812;7.132;2022-09-30T02:03:36;6.40;;;5.80;;
4106;SDS011;21906;50.812;7.132;2022-09-30T02:06:11;6.70;;;6.00;;
4106;SDS011;21906;50.812;7.132;2022-09-30T02:08:46;6.40;;;5.80;;
4106;SDS011;21906;50.812;7.132;2022-09-30T02:11:27;6.80;;;6.20;;
4106;SDS011;21906;50.812;7.132;2022-09-30T02:16:54;5.73;;;5.23;;
4106;SDS011;21906;50.812;7.132;2022-09-30T02:19:29;6.40;;;5.90;;
4106;SDS011;21906;50.812;7.132;2022-09-30T02:22:34;8.13;;;6.53;;
4106;SDS011;21906;50.812;7.132;2022-09-30T02:25:04;6.40;;;5.80;;
4106;SDS011;21906;50.812;7.132;2022-09-30T02:27:34;6.77;;;6.10;;
4106;SDS011;21906;50.812;7.132;2022-09-30T02:30:06;6.30;;;5.73;;
4106;SDS011;21906;50.812;7.132;2022-09-30T02:32:36;6.50;;;5.90;;
4106;SDS011;21906;50.812;7.132;2022-09-30T02:35:16;6.97;;;5.77;;
4106;SDS011;21906;50.812;7.132;2022-09-30T02:37:53;6.50;;;6.10;;
4106;SDS011;21906;50.812;7.132;2022-09-30T02:42:53;6.70;;;6.10;;
4106;SDS011;21906;50.812;7.132;2022-09-30T02:45:20;7.10;;;6.40;;
4106;SDS011;21906;50.812;7.132;2022-09-30T02:50:23;7.10;;;6.50;;
4106;SDS011;21906;50.812;7.132;2022-09-30T02:58:25;7.00;;;6.37;;
4106;SDS011;21906;50.812;7.132;2022-09-30T03:00:51;7.47;;;6.40;;
4106;SDS011;21906;50.812;7.132;2022-09-30T03:03:19;6.40;;;5.80;;
4106;SDS011;21906;50.812;7.132;2022-09-30T03:05:49;7.27;;;6.57;;
4106;SDS011;21906;50.812;7.132;2022-09-30T03:08:15;10.67;;;5.43;;
4106;SDS011;21906;50.812;7.132;2022-09-30T03:10:41;6.87;;;6.17;;
4106;SDS011;21906;50.812;7.132;2022-09-30T03:13:20;6.33;;;5.80;;
4106;SDS011;21906;50.812;7.132;2022-09-30T03:19:09;6.93;;;5.90;;
4106;SDS011;21906;50.812;7.132;2022-09-30T03:30:31;6.67;;;5.90;;
4106;SDS011;21906;50.812;7.132;2022-09-30T03:33:05;6.67;;;5.70;;
4106;SDS011;21906;50.812;7.132;2022-09-30T03:41:18;7.03;;;6.40;;
4106;SDS011;21906;50.812;7.132;2022-09-30T03:43:34;6.10;;;5.60;;
4106;SDS011;21906;50.812;7.132;2022-09-30T03:46:35;7.70;;;6.03;;
4106;SDS011;21906;50.812;7.132;2022-09-30T03:49:23;8.03;;;5.70;;
4106;SDS011;21906;50.812;7.132;2022-09-30T03:52:06;5.90;;;5.40;;
4106;SDS011;21906;50.812;7.132;2022-09-30T03:54:42;6.63;;;6.03;;
4106;SDS011;21906;50.812;7.132;2022-09-30T03:57:10;6.40;;;5.80;;
4106;SDS011;21906;50.812;7.132;2022-09-30T03:59:35;6.23;;;5.73;;
4106;SDS011;21906;50.812;7.132;2022-09-30T04:02:01;6.83;;;5.60;;
4106;SDS011;21906;50.812;7.132;2022-09-30T04:04:28;8.80;;;6.60;;
4106;SDS011;21906;50.812;7.132;2022-09-30T04:06:54;6.57;;;5.90;;
4106;SDS011;21906;50.812;7.132;2022-09-30T04:09:20;6.97;;;6.37;;
4106;SDS011;21906;50.812;7.132;2022-09-30T04:11:45;6.10;;;5.67;;
4106;SDS011;21906;50.812;7.132;2022-09-30T04:14:11;6.70;;;6.13;;
4106;SDS011;21906;50.812;7.132;2022-09-30T04:16:37;6.73;;;6.10;;
4106;SDS011;21906;50.812;7.132;2022-09-30T04:19:02;7.37;;;5.90;;
4106;SDS011;21906;50.812;7.132;2022-09-30T04:21:28;5.90;;;5.40;;
4106;SDS011;21906;50.812;7.132;2022-09-30T04:23:54;7.00;;;6.33;;
4106;SDS011;21906;50.812;7.132;2022-09-30T04:26:20;6.90;;;6.30;;
4106;SDS011;21906;50.812;7.132;2022-09-30T04:28:47;6.87;;;6.27;;
4106;SDS011;21906;50.812;7.132;2022-09-30T04:31:13;9.70;;;6.53;;
4106;SDS011;21906;50.812;7.132;2022-09-30T04:33:41;6.77;;;6.17;;
4106;SDS011;21906;50.812;7.132;2022-09-30T04:36:09;6.60;;;6.00;;
4106;SDS011;21906;50.812;7.132;2022-09-30T04:38:34;6.13;;;5.60;;
4106;SDS011;21906;50.812;7.132;2022-09-30T04:41:01;6.97;;;6.37;;
4106;SDS011;21906;50.812;7.132;2022-09-30T04:43:29;7.03;;;6.20;;
4106;SDS011;21906;50.812;7.132;2022-09-30T04:45:55;6.90;;;6.30;;
4106;SDS011;21906;50.812;7.132;2022-09-30T04:48:22;9.60;;;5.90;;
4106;SDS011;21906;50.812;7.132;2022-09-30T04:50:48;6.60;;;6.00;;
4106;SDS011;21906;50.812;7.132;2022-09-30T04:53:14;6.20;;;5.70;;
4106;SDS011;21906;50.812;7.132;2022-09-30T04:55:42;6.70;;;6.00;;
4106;SDS011;21906;50.812;7.132;2022-09-30T04:58:08;6.83;;;6.20;;
4106;SDS011;21906;50.812;7.132;2022-09-30T05:00:34;6.77;;;5.93;;
4106;SDS011;21906;50.812;7.132;2022-09-30T05:03:00;7.40;;;6.77;;
4106;SDS011;21906;50.812;7.132;2022-09-30T05:05:27;7.10;;;6.07;;
4106;SDS011;21906;50.812;7.132;2022-09-30T05:07:57;6.93;;;6.23;;
4106;SDS011;21906;50.812;7.132;2022-09-30T05:10:24;7.33;;;6.47;;
4106;SDS011;21906;50.812;7.132;2022-09-30T05:12:51;6.97;;;6.47;;
4106;SDS011;21906;50.812;7.132;2022-09-30T05:15:17;8.63;;;6.80;;
4106;SDS011;21906;50.812;7.132;2022-09-30T05:17:42;7.60;;;6.10;;
4106;SDS011;21906;50.812;7.132;2022-09-30T05:20:08;7.13;;;6.53;;
4106;SDS011;21906;50.812;7.132;2022-09-30T05:22:35;7.30;;;6.60;;
4106;SDS011;21906;50.812;7.132;2022-09-30T05:25:02;8.13;;;6.27;;
4106;SDS011;21906;50.812;7.132;2022-09-30T05:27:28;7.67;;;6.80;;
4106;SDS011;21906;50.812;7.132;2022-09-30T05:29:54;6.90;;;6.40;;
4106;SDS011;21906;50.812;7.132;2022-09-30T05:32:20;6.60;;;6.00;;
4106;SDS011;21906;50.812;7.132;2022-09-30T05:34:46;7.00;;;6.30;;
4106;SDS011;21906;50.812;7.132;2022-09-30T05:37:12;10.67;;;6.90;;
4106;SDS011;21906;50.812;7.132;2022-09-30T05:39:38;7.57;;;6.80;;
4106;SDS011;21906;50.812;7.132;2022-09-30T05:42:03;8.10;;;7.03;;
4106;SDS011;21906;50.812;7.132;2022-09-30T05:44:29;7.60;;;6.90;;
4106;SDS011;21906;50.812;7.132;2022-09-30T05:46:55;7.60;;;6.90;;
4106;SDS011;21906;50.812;7.132;2022-09-30T05:49:20;7.53;;;6.83;;
4106;SDS011;21906;50.812;7.132;2022-09-30T05:51:46;7.93;;;6.70;;
4106;SDS011;21906;50.812;7.132;2022-09-30T05:54:12;7.50;;;6.53;;
4106;SDS011;21906;50.812;7.132;2022-09-30T05:56:38;7.93;;;6.60;;
4106;SDS011;21906;50.812;7.132;2022-09-30T05:59:04;7.87;;;7.00;;
4106;SDS011;21906;50.812;7.132;2022-09-30T06:01:30;7.97;;;7.10;;
4106;SDS011;21906;50.812;7.132;2022-09-30T06:03:56;9.30;;;6.80;;
4106;SDS011;21906;50.812;7.132;2022-09-30T06:06:22;7.67;;;6.77;;
4106;SDS011;21906;50.812;7.132;2022-09-30T06:08:48;6.93;;;6.43;;
4106;SDS011;21906;50.812;7.132;2022-09-30T06:11:15;8.67;;;6.83;;
4106;SDS011;21906;50.812;7.132;2022-09-30T06:13:43;8.37;;;7.57;;
4106;SDS011;21906;50.812;7.132;2022-09-30T06:16:09;7.70;;;7.00;;
4106;SDS011;21906;50.812;7.132;2022-09-30T06:18:36;8.60;;;6.70;;
4106;SDS011;21906;50.812;7.132;2022-09-30T06:21:06;7.50;;;6.67;;
4106;SDS011;21906;50.812;7.132;2022-09-30T06:23:35;7.50;;;6.80;;
4106;SDS011;21906;50.812;7.132;2022-09-30T06:26:01;8.10;;;6.67;;
4106;SDS011;21906;50.812;7.132;2022-09-30T06:28:29;8.47;;;6.50;;
4106;SDS011;21906;50.812;7.132;2022-09-30T06:30:55;7.37;;;6.30;;
4106;SDS011;21906;50.812;7.132;2022-09-30T06:33:21;7.17;;;6.47;;
4106;SDS011;21906;50.812;7.132;2022-09-30T06:35:47;6.60;;;6.10;;
4106;SDS011;21906;50.812;7.132;2022-09-30T06:38:14;7.90;;;6.73;;
4106;SDS011;21906;50.812;7.132;2022-09-30T06:40:40;7.07;;;6.47;;
4106;SDS011;21906;50.812;7.132;2022-09-30T06:43:13;7.43;;;6.73;;
4106;SDS011;21906;50.812;7.132;2022-09-30T06:45:39;8.17;;;6.43;;
4106;SDS011;21906;50.812;7.132;2022-09-30T06:48:05;7.53;;;6.83;;
4106;SDS011;21906;50.812;7.132;2022-09-30T06:50:34;7.30;;;6.60;;
4106;SDS011;21906;50.812;7.132;2022-09-30T06:53:01;6.67;;;6.10;;
4106;SDS011;21906;50.812;7.132;2022-09-30T06:55:31;7.17;;;6.47;;
4106;SDS011;21906;50.812;7.132;2022-09-30T06:57:57;7.10;;;6.40;;
4106;SDS011;21906;50.812;7.132;2022-09-30T07:00:23;6.90;;;6.10;;
4106;SDS011;21906;50.812;7.132;2022-09-30T07:02:50;7.00;;;6.30;;
4106;SDS011;21906;50.812;7.132;2022-09-30T07:05:18;6.80;;;6.30;;
4106;SDS011;21906;50.812;7.132;2022-09-30T07:07:44;10.23;;;6.40;;
4106;SDS011;21906;50.812;7.132;2022-09-30T07:10:09;6.50;;;5.90;;
4106;SDS011;21906;50.812;7.132;2022-09-30T07:12:35;6.33;;;5.87;;
4106;SDS011;21906;50.812;7.132;2022-09-30T07:15:01;6.40;;;5.90;;
4106;SDS011;21906;50.812;7.132;2022-09-30T07:17:27;8.90;;;6.90;;
4106;SDS011;21906;50.812;7.132;2022-09-30T07:19:53;6.80;;;6.20;;
4106;SDS011;21906;50.812;7.132;2022-09-30T07:22:19;6.47;;;5.87;;
4106;SDS011;21906;50.812;7.132;2022-09-30T07:24:51;6.47;;;5.87;;
4106;SDS011;21906;50.812;7.132;2022-09-30T07:27:17;7.10;;;6.40;;
4106;SDS011;21906;50.812;7.132;2022-09-30T07:29:43;6.77;;;6.17;;
4106;SDS011;21906;50.812;7.132;2022-09-30T07:32:09;9.10;;;5.97;;
4106;SDS011;21906;50.812;7.132;2022-09-30T07:34:36;7.67;;;6.93;;
4106;SDS011;21906;50.812;7.132;2022-09-30T07:37:06;7.63;;;6.77;;
4106;SDS011;21906;50.812;7.132;2022-09-30T07:39:33;7.07;;;6.47;;
4106;SDS011;21906;50.812;7.132;2022-09-30T07:41:59;6.40;;;5.83;;
4106;SDS011;21906;50.812;7.132;2022-09-30T07:44:26;6.80;;;6.20;;
4106;SDS011;21906;50.812;7.132;2022-09-30T07:46:53;6.50;;;6.00;;
4106;SDS011;21906;50.812;7.132;2022-09-30T07:49:19;6.70;;;6.20;;
4106;SDS011;21906;50.812;7.132;2022-09-30T07:51:49;6.80;;;6.10;;
4106;SDS011;21906;50.812;7.132;2022-09-30T07:54:18;6.63;;;6.03;;
4106;SDS011;21906;50.812;7.132;2022-09-30T07:56:49;7.00;;;6.30;;
4106;SDS011;21906;50.812;7.132;2022-09-30T07:59:16;7.13;;;6.53;;
4106;SDS011;21906;50.812;7.132;2022-09-30T08:01:43;7.67;;;6.50;;
4106;SDS011;21906;50.812;7.132;2022-09-30T08:04:09;8.30;;;7.50;;
4106;SDS011;21906;50.812;7.132;2022-09-30T08:06:37;7.47;;;6.80;;
4106;SDS011;21906;50.812;7.132;2022-09-30T08:09:05;7.63;;;6.90;;
4106;SDS011;21906;50.812;7.132;2022-09-30T08:11:32;7.83;;;7.13;;
4106;SDS011;21906;50.812;7.132;2022-09-30T08:13:58;7.20;;;6.60;;
4106;SDS011;21906;50.812;7.132;2022-09-30T08:16:24;8.50;;;7.70;;
4106;SDS011;21906;50.812;7.132;2022-09-30T08:18:57;7.47;;;6.87;;
4106;SDS011;21906;50.812;7.132;2022-09-30T08:21:24;7.93;;;7.10;;
4106;SDS011;21906;50.812;7.132;2022-09-30T08:23:51;7.50;;;6.90;;
4106;SDS011;21906;50.812;7.132;2022-09-30T08:26:16;8.50;;;7.60;;
4106;SDS011;21906;50.812;7.132;2022-09-30T08:28:43;7.80;;;7.10;;
4106;SDS011;21906;50.812;7.132;2022-09-30T08:31:15;7.53;;;6.73;;
4106;SDS011;21906;50.812;7.132;2022-09-30T08:33:42;7.37;;;6.67;;
4106;SDS011;21906;50.812;7.132;2022-09-30T08:36:09;7.40;;;6.30;;
4106;SDS011;21906;50.812;7.132;2022-09-30T08:38:37;7.63;;;6.87;;
4106;SDS011;21906;50.812;7.132;2022-09-30T08:43:44;7.57;;;6.90;;
4106;SDS011;21906;50.812;7.132;2022-09-30T08:46:20;7.33;;;6.73;;
4106;SDS011;21906;50.812;7.132;2022-09-30T08:49:02;7.60;;;7.00;;
4106;SDS011;21906;50.812;7.132;2022-09-30T08:51:57;7.00;;;6.30;;
4106;SDS011;21906;50.812;7.132;2022-09-30T08:54:28;8.50;;;7.20;;
4106;SDS011;21906;50.812;7.132;2022-09-30T08:56:56;7.77;;;6.70;;
4106;SDS011;21906;50.812;7.132;2022-09-30T09:01:52;8.00;;;7.20;;
4106;SDS011;21906;50.812;7.132;2022-09-30T09:04:24;7.70;;;6.90;;
4106;SDS011;21906;50.812;7.132;2022-09-30T09:07:03;7.23;;;6.60;;
4106;SDS011;21906;50.812;7.132;2022-09-30T09:20:31;8.30;;;7.10;;
4106;SDS011;21906;50.812;7.132;2022-09-30T09:23:01;7.77;;;7.07;;
4106;SDS011;21906;50.812;7.132;2022-09-30T09:25:28;10.40;;;8.23;;
4106;SDS011;21906;50.812;7.132;2022-09-30T09:30:20;7.23;;;6.60;;
4106;SDS011;21906;50.812;7.132;2022-09-30T09:32:57;7.90;;;7.17;;
4106;SDS011;21906;50.812;7.132;2022-09-30T09:35:35;8.83;;;7.90;;
4106;SDS011;21906;50.812;7.132;2022-09-30T09:38:20;8.40;;;7.50;;
4106;SDS011;21906;50.812;7.132;2022-09-30T09:41:14;7.83;;;7.13;;
4106;SDS011;21906;50.812;7.132;2022-09-30T09:44:12;7.80;;;7.03;;
4106;SDS011;21906;50.812;7.132;2022-09-30T09:47:02;8.50;;;7.70;;
4106;SDS011;21906;50.812;7.132;2022-09-30T09:49:35;7.40;;;6.70;;
4106;SDS011;21906;50.812;7.132;2022-09-30T09:54:39;7.93;;;6.60;;
4106;SDS011;21906;50.812;7.132;2022-09-30T09:57:09;6.43;;;5.80;;
4106;SDS011;21906;50.812;7.132;2022-09-30T09:59:36;8.83;;;7.37;;
4106;SDS011;21906;50.812;7.132;2022-09-30T10:02:26;7.43;;;6.83;;
4106;SDS011;21906;50.812;7.132;2022-09-30T10:04:55;6.80;;;6.30;;
4106;SDS011;21906;50.812;7.132;2022-09-30T10:07:27;6.07;;;5.57;;
4106;SDS011;21906;50.812;7.132;2022-09-30T10:10:17;7.30;;;6.60;;
4106;SDS011;21906;50.812;7.132;2022-09-30T10:12:44;6.53;;;5.67;;
4106;SDS011;21906;50.812;7.132;2022-09-30T10:15:21;6.00;;;5.43;;
4106;SDS011;21906;50.812;7.132;2022-09-30T10:17:53;6.53;;;6.03;;
4106;SDS011;21906;50.812;7.132;2022-09-30T10:20:31;6.00;;;5.60;;
4106;SDS011;21906;50.812;7.132;2022-09-30T10:23:01;4.80;;;4.50;;
4106;SDS011;21906;50.812;7.132;2022-09-30T10:25:33;6.13;;;5.63;;
4106;SDS011;21906;50.812;7.132;2022-09-30T10:28:00;5.63;;;5.23;;
4106;SDS011;21906;50.812;7.132;2022-09-30T10:30:38;5.63;;;5.23;;
4106;SDS011;21906;50.812;7.132;2022-09-30T10:36:06;5.33;;;4.97;;
4106;SDS011;21906;50.812;7.132;2022-09-30T10:38:35;5.13;;;4.70;;
4106;SDS011;21906;50.812;7.132;2022-09-30T10:41:08;5.43;;;5.03;;
4106;SDS011;21906;50.812;7.132;2022-09-30T10:43:43;5.67;;;5.17;;
4106;SDS011;21906;50.812;7.132;2022-09-30T10:46:19;4.27;;;3.90;;
4106;SDS011;21906;50.812;7.132;2022-09-30T10:48:52;2.67;;;2.47;;
4106;SDS011;21906;50.812;7.132;2022-09-30T10:51:23;3.00;;;2.80;;
4106;SDS011;21906;50.812;7.132;2022-09-30T10:53:51;2.70;;;2.50;;
4106;SDS011;21906;50.812;7.132;2022-09-30T10:56:38;2.60;;;2.40;;
4106;SDS011;21906;50.812;7.132;2022-09-30T10:59:06;3.70;;;2.50;;
4106;SDS011;21906;50.812;7.132;2022-09-30T11:01:47;3.90;;;2.50;;
4106;SDS011;21906;50.812;7.132;2022-09-30T11:04:34;2.80;;;2.57;;
4106;SDS011;21906;50.812;7.132;2022-09-30T11:13:01;2.70;;;2.50;;
4106;SDS011;21906;50.812;7.132;2022-09-30T11:18:26;2.50;;;2.30;;
4106;SDS011;21906;50.812;7.132;2022-09-30T11:21:03;2.03;;;1.93;;
4106;SDS011;21906;50.812;7.132;2022-09-30T11:23:39;2.37;;;2.17;;
4106;SDS011;21906;50.812;7.132;2022-09-30T11:26:38;2.10;;;2.00;;
4106;SDS011;21906;50.812;7.132;2022-09-30T11:34:38;3.80;;;2.20;;
4106;SDS011;21906;50.812;7.132;2022-09-30T11:40:10;2.50;;;2.30;;
4106;SDS011;21906;50.812;7.132;2022-09-30T11:43:32;2.40;;;2.20;;
4106;SDS011;21906;50.812;7.132;2022-09-30T11:58:52;2.20;;;2.00;;
4106;SDS011;21906;50.812;7.132;2022-09-30T12:01:36;2.40;;;2.20;;
4106;SDS011;21906;50.812;7.132;2022-09-30T12:06:49;2.40;;;2.20;;
4106;SDS011;21906;50.812;7.132;2022-09-30T12:09:52;2.90;;;2.60;;
4106;SDS011;21906;50.812;7.132;2022-09-30T12:12:24;2.33;;;2.13;;
4106;SDS011;21906;50.812;7.132;2022-09-30T12:14:52;2.17;;;2.07;;
4106;SDS011;21906;50.812;7.132;2022-09-30T12:17:25;3.43;;;2.30;;
4106;SDS011;21906;50.812;7.132;2022-09-30T12:19:57;3.13;;;2.33;;
4106;SDS011;21906;50.812;7.132;2022-09-30T12:22:30;2.20;;;2.10;;
4106;SDS011;21906;50.812;7.132;2022-09-30T12:25:09;2.87;;;2.67;;
4106;SDS011;21906;50.812;7.132;2022-09-30T12:27:39;5.10;;;2.80;;
4106;SDS011;21906;50.812;7.132;2022-09-30T12:30:11;2.40;;;2.20;;
4106;SDS011;21906;50.812;7.132;2022-09-30T12:43:58;2.40;;;2.20;;
4106;SDS011;21906;50.812;7.132;2022-09-30T12:49:22;2.17;;;2.07;;
4106;SDS011;21906;50.812;7.132;2022-09-30T12:51:52;2.13;;;1.93;;
4106;SDS011;21906;50.812;7.132;2022-09-30T12:54:30;2.73;;;1.87;;
4106;SDS011;21906;50.812;7.132;2022-09-30T12:57:00;2.10;;;2.00;;
4106;SDS011;21906;50.812;7.132;2022-09-30T12:59:29;2.53;;;2.20;;
4106;SDS011;21906;50.812;7.132;2022-09-30T13:02:04;2.00;;;1.90;;
4106;SDS011;21906;50.812;7.132;2022-09-30T13:04:33;2.30;;;2.10;;
4106;SDS011;21906;50.812;7.132;2022-09-30T13:09:30;1.93;;;1.83;;
4106;SDS011;21906;50.812;7.132;2022-09-30T13:27:31;2.37;;;1.90;;
4106;SDS011;21906;50.812;7.132;2022-09-30T13:32:39;2.00;;;1.70;;
4106;SDS011;21906;50.812;7.132;2022-09-30T13:40:45;2.27;;;2.07;;
4106;SDS011;21906;50.812;7.132;2022-09-30T13:43:19;2.50;;;2.00;;
4106;SDS011;21906;50.812;7.132;2022-09-30T13:45:46;2.00;;;1.67;;
4106;SDS011;21906;50.812;7.132;2022-09-30T13:48:16;2.10;;;1.90;;
4106;SDS011;21906;50.812;7.132;2022-09-30T13:50:47;2.00;;;1.90;;
4106;SDS011;21906;50.812;7.132;2022-09-30T13:56:12;3.70;;;1.70;;
4106;SDS011;21906;50.812;7.132;2022-09-30T14:04:35;1.77;;;1.67;;
4106;SDS011;21906;50.812;7.132;2022-09-30T14:23:16;1.60;;;1.50;;
4106;SDS011;21906;50.812;7.132;2022-09-30T14:25:48;1.47;;;1.37;;
4106;SDS011;21906;50.812;7.132;2022-09-30T14:28:32;2.40;;;1.50;;
4106;SDS011;21906;50.812;7.132;2022-09-30T14:31:12;1.30;;;1.20;;
4106;SDS011;21906;50.812;7.132;2022-09-30T14:33:39;1.27;;;1.17;;
4106;SDS011;21906;50.812;7.132;2022-09-30T14:36:15;1.30;;;1.20;;
4106;SDS011;21906;50.812;7.132;2022-09-30T14:38:44;1.80;;;1.60;;
4106;SDS011;21906;50.812;7.132;2022-09-30T14:41:20;1.50;;;1.40;;
4106;SDS011;21906;50.812;7.132;2022-09-30T14:43:56;1.90;;;1.60;;
4106;SDS011;21906;50.812;7.132;2022-09-30T14:46:30;1.90;;;1.70;;
4106;SDS011;21906;50.812;7.132;2022-09-30T14:49:07;1.87;;;1.53;;
4106;SDS011;21906;50.812;7.132;2022-09-30T14:51:37;2.47;;;1.50;;
4106;SDS011;21906;50.812;7.132;2022-09-30T14:54:23;1.83;;;1.70;;
4106;SDS011;21906;50.812;7.132;2022-09-30T14:56:50;2.70;;;1.40;;
4106;SDS011;21906;50.812;7.132;2022-09-30T15:02:11;1.77;;;1.40;;
4106;SDS011;21906;50.812;7.132;2022-09-30T15:04:40;1.63;;;1.40;;
4106;SDS011;21906;50.812;7.132;2022-09-30T15:07:13;3.87;;;1.30;;
4106;SDS011;21906;50.812;7.132;2022-09-30T15:09:39;1.60;;;1.50;;
4106;SDS011;21906;50.812;7.132;2022-09-30T15:12:11;1.80;;;1.60;;
4106;SDS011;21906;50.812;7.132;2022-09-30T15:17:26;1.50;;;1.40;;
4106;SDS011;21906;50.812;7.132;2022-09-30T15:20:02;1.60;;;1.50;;
4106;SDS011;21906;50.812;7.132;2022-09-30T15:22:46;1.73;;;1.40;;
4106;SDS011;21906;50.812;7.132;2022-09-30T15:25:12;2.60;;;2.40;;
4106;SDS011;21906;50.812;7.132;2022-09-30T15:27:40;2.40;;;2.20;;
4106;SDS011;21906;50.812;7.132;2022-09-30T15:32:44;4.10;;;3.80;;
4106;SDS011;21906;50.812;7.132;2022-09-30T15:35:16;1.90;;;1.80;;
4106;SDS011;21906;50.812;7.132;2022-09-30T15:37:47;1.30;;;1.10;;
4106;SDS011;21906;50.812;7.132;2022-09-30T15:40:15;2.97;;;1.30;;
4106;SDS011;21906;50.812;7.132;2022-09-30T15:43:08;1.67;;;1.40;;
4106;SDS011;21906;50.812;7.132;2022-09-30T15:45:36;1.30;;;1.20;;
4106;SDS011;21906;50.812;7.132;2022-09-30T15:50:52;1.60;;;1.50;;
4106;SDS011;21906;50.812;7.132;2022-09-30T15:55:53;1.90;;;1.63;;
4106;SDS011;21906;50.812;7.132;2022-09-30T15:58:31;2.10;;;2.00;;
4106;SDS011;21906;50.812;7.132;2022-09-30T16:09:02;1.80;;;1.70;;
4106;SDS011;21906;50.812;7.132;2022-09-30T16:11:37;1.67;;;1.57;;
4106;SDS011;21906;50.812;7.132;2022-09-30T16:14:07;1.67;;;1.57;;
4106;SDS011;21906;50.812;7.132;2022-09-30T16:16:49;1.57;;;1.47;;
4106;SDS011;21906;50.812;7.132;2022-09-30T16:19:17;1.80;;;1.70;;
4106;SDS011;21906;50.812;7.132;2022-09-30T16:21:47;3.13;;;1.50;;
4106;SDS011;21906;50.812;7.132;2022-09-30T16:27:18;2.03;;;1.93;;
4106;SDS011;21906;50.812;7.132;2022-09-30T16:29:50;2.37;;;1.93;;
4106;SDS011;21906;50.812;7.132;2022-09-30T16:32:16;1.67;;;1.57;;
4106;SDS011;21906;50.812;7.132;2022-09-30T16:34:42;1.97;;;1.50;;
4106;SDS011;21906;50.812;7.132;2022-09-30T16:37:16;2.10;;;1.40;;
4106;SDS011;21906;50.812;7.132;2022-09-30T16:39:43;1.60;;;1.50;;
4106;SDS011;21906;50.812;7.132;2022-09-30T16:42:12;2.20;;;2.00;;
4106;SDS011;21906;50.812;7.132;2022-09-30T16:44:39;1.87;;;1.30;;
4106;SDS011;21906;50.812;7.132;2022-09-30T16:47:06;3.83;;;1.60;;
4106;SDS011;21906;50.812;7.132;2022-09-30T16:49:33;1.60;;;1.50;;
4106;SDS011;21906;50.812;7.132;2022-09-30T16:51:59;2.60;;;1.60;;
4106;SDS011;21906;50.812;7.132;2022-09-30T16:54:25;1.80;;;1.70;;
4106;SDS011;21906;50.812;7.132;2022-09-30T16:56:50;1.80;;;1.40;;
4106;SDS011;21906;50.812;7.132;2022-09-30T16:59:18;1.60;;;1.50;;
4106;SDS011;21906;50.812;7.132;2022-09-30T17:01:44;1.60;;;1.50;;
4106;SDS011;21906;50.812;7.132;2022-09-30T17:04:10;1.40;;;1.30;;
4106;SDS011;21906;50.812;7.132;2022-09-30T17:06:36;1.80;;;1.70;;
4106;SDS011;21906;50.812;7.132;2022-09-30T17:09:02;2.80;;;1.93;;
4106;SDS011;21906;50.812;7.132;2022-09-30T17:11:29;1.90;;;1.80;;
4106;SDS011;21906;50.812;7.132;2022-09-30T17:13:59;1.90;;;1.80;;
4106;SDS011;21906;50.812;7.132;2022-09-30T17:16:27;2.83;;;2.53;;
4106;SDS011;21906;50.812;7.132;2022-09-30T17:18:53;2.93;;;2.73;;
4106;SDS011;21906;50.812;7.132;2022-09-30T17:21:19;2.70;;;2.50;;
4106;SDS011;21906;50.812;7.132;2022-09-30T17:23:47;2.20;;;2.10;;
4106;SDS011;21906;50.812;7.132;2022-09-30T17:26:12;2.60;;;2.40;;
4106;SDS011;21906;50.812;7.132;2022-09-30T17:28:38;3.03;;;2.10;;
4106;SDS011;21906;50.812;7.132;2022-09-30T17:31:04;3.20;;;2.50;;
4106;SDS011;21906;50.812;7.132;2022-09-30T17:33:32;2.70;;;2.50;;
4106;SDS011;21906;50.812;7.132;2022-09-30T17:36:00;2.63;;;2.47;;
4106;SDS011;21906;50.812;7.132;2022-09-30T17:38:28;2.90;;;2.63;;
4106;SDS011;21906;50.812;7.132;2022-09-30T17:40:54;2.60;;;2.37;;
4106;SDS011;21906;50.812;7.132;2022-09-30T17:43:38;2.10;;;2.00;;
4106;SDS011;21906;50.812;7.132;2022-09-30T17:46:04;2.00;;;1.90;;
4106;SDS011;21906;50.812;7.132;2022-09-30T17:48:30;2.10;;;2.00;;
4106;SDS011;21906;50.812;7.132;2022-09-30T17:50:56;2.30;;;2.10;;
4106;SDS011;21906;50.812;7.132;2022-09-30T17:53:22;2.40;;;2.20;;
4106;SDS011;21906;50.812;7.132;2022-09-30T17:55:59;2.20;;;2.10;;
4106;SDS011;21906;50.812;7.132;2022-09-30T17:58:26;2.67;;;2.47;;
4106;SDS011;21906;50.812;7.132;2022-09-30T18:00:53;2.30;;;2.10;;
4106;SDS011;21906;50.812;7.132;2022-09-30T18:03:19;2.70;;;2.50;;
4106;SDS011;21906;50.812;7.132;2022-09-30T18:05:45;3.60;;;2.10;;
4106;SDS011;21906;50.812;7.132;2022-09-30T18:08:11;2.27;;;2.07;;
4106;SDS011;21906;50.812;7.132;2022-09-30T18:10:37;2.10;;;2.00;;
4106;SDS011;21906;50.812;7.132;2022-09-30T18:13:03;2.43;;;2.23;;
4106;SDS011;21906;50.812;7.132;2022-09-30T18:15:29;2.60;;;2.40;;
4106;SDS011;21906;50.812;7.132;2022-09-30T18:17:55;2.30;;;2.10;;
4106;SDS011;21906;50.812;7.132;2022-09-30T18:20:21;2.67;;;2.47;;
4106;SDS011;21906;50.812;7.132;2022-09-30T18:22:46;2.70;;;2.50;;
4106;SDS011;21906;50.812;7.132;2022-09-30T18:25:12;2.50;;;2.30;;
4106;SDS011;21906;50.812;7.132;2022-09-30T18:27:44;2.70;;;2.23;;
4106;SDS011;21906;50.812;7.132;2022-09-30T18:30:10;4.23;;;2.43;;
4106;SDS011;21906;50.812;7.132;2022-09-30T18:32:37;2.80;;;2.60;;
4106;SDS011;21906;50.812;7.132;2022-09-30T18:35:03;2.33;;;2.00;;
4106;SDS011;21906;50.812;7.132;2022-09-30T18:37:34;2.80;;;2.33;;
4106;SDS011;21906;50.812;7.132;2022-09-30T18:40:00;3.60;;;3.30;;
4106;SDS011;21906;50.812;7.132;2022-09-30T18:42:25;3.57;;;3.37;;
4106;SDS011;21906;50.812;7.132;2022-09-30T18:44:52;3.70;;;3.50;;
4106;SDS011;21906;50.812;7.132;2022-09-30T18:47:18;3.50;;;3.30;;
4106;SDS011;21906;50.812;7.132;2022-09-30T18:49:44;3.27;;;3.07;;
4106;SDS011;21906;50.812;7.132;2022-09-30T18:52:10;3.30;;;3.10;;